Time;durP1;ratioP1;P1;durP2;ratioP2;P2;SDS_P1;SDS_P2;PMS_P1;PMS_P2;Temp;Humidity;BMP_temperature;BMP_pressure;BME280_temperature;BME280_humidity;BME280_pressure;Samples;Min_cycle;Max_cycle;Signal;HPM_P1;HPM_P2
2021/07/31 00:01:38;;;;;;;16.90;4.53;;;;;;;;;;5017838;28;20476;-64
2021/07/31 00:04:05;;;;;;;9.38;4.50;;;;;;;;;;5021665;28;20041;-65
2021/07/31 00:06:31;;;;;;;13.95;4.72;;;;;;;;;;5021601;28;20136;-65
2021/07/31 00:08:57;;;;;;;12.50;4.63;;;;;;;;;;5019351;28;20533;-64
2021/07/31 00:11:23;;;;;;;11.20;5.20;;;;;;;;;;5020672;28;20045;-64
2021/07/31 00:13:50;;;;;;;13.32;5.13;;;;;;;;;;5020067;28;20127;-65
2021/07/31 00:16:16;;;;;;;14.23;5.72;;;;;;;;;;5022321;28;20089;-65
2021/07/31 00:18:42;;;;;;;21.08;6.45;;;;;;;;;;5023028;28;20055;-65
2021/07/31 00:21:09;;;;;;;15.60;5.57;;;;;;;;;;5019776;28;20064;-65
2021/07/31 00:23:35;;;;;;;14.82;6.22;;;;;;;;;;5023393;28;20088;-65
2021/07/31 00:26:01;;;;;;;13.50;5.32;;;;;;;;;;5021469;28;20053;-64
2021/07/31 00:28:28;;;;;;;16.05;5.22;;;;;;;;;;5020438;28;20042;-65
2021/07/31 00:30:54;;;;;;;14.88;4.72;;;;;;;;;;5021273;28;20485;-65
2021/07/31 00:33:20;;;;;;;17.88;5.53;;;;;;;;;;5020774;28;20041;-64
2021/07/31 00:35:47;;;;;;;12.60;5.50;;;;;;;;;;5019065;28;20629;-65
2021/07/31 00:38:13;;;;;;;17.42;6.40;;;;;;;;;;5021607;28;20052;-65
2021/07/31 00:40:41;;;;;;;14.32;5.97;;;;;;;;;;5010929;28;20053;-65
2021/07/31 00:43:08;;;;;;;12.52;5.50;;;;;;;;;;5019907;28;20418;-65
2021/07/31 00:45:35;;;;;;;17.67;6.47;;;;;;;;;;5014755;28;20456;-65
2021/07/31 00:48:01;;;;;;;16.83;7.10;;;;;;;;;;5016041;28;20054;-65
2021/07/31 00:50:28;;;;;;;16.05;7.35;;;;;;;;;;5020911;28;20103;-64
2021/07/31 00:52:55;;;;;;;22.10;7.88;;;;;;;;;;5021749;28;20045;-65
2021/07/31 00:55:23;;;;;;;20.15;7.70;;;;;;;;;;5022928;28;20045;-65
2021/07/31 00:57:50;;;;;;;20.10;8.18;;;;;;;;;;5023769;28;20057;-64
2021/07/31 01:00:16;;;;;;;23.38;8.25;;;;;;;;;;5018717;28;20184;-65
2021/07/31 01:02:42;;;;;;;19.25;8.90;;;;;;;;;;5023254;28;20045;-64
2021/07/31 01:05:09;;;;;;;16.23;6.55;;;;;;;;;;5021014;28;20098;-64
2021/07/31 01:07:35;;;;;;;18.02;7.88;;;;;;;;;;5020472;28;20372;-65
2021/07/31 01:10:02;;;;;;;23.60;7.93;;;;;;;;;;5022343;28;20087;-65
2021/07/31 01:12:28;;;;;;;17.58;7.80;;;;;;;;;;5020298;28;20069;-65
2021/07/31 01:14:55;;;;;;;19.42;7.13;;;;;;;;;;5022338;28;20524;-65
2021/07/31 01:17:21;;;;;;;17.67;7.82;;;;;;;;;;5014366;28;20092;-65
2021/07/31 01:19:47;;;;;;;19.17;9.20;;;;;;;;;;5016949;28;20050;-65
2021/07/31 01:22:13;;;;;;;18.40;7.90;;;;;;;;;;5020403;28;20817;-65
2021/07/31 01:24:39;;;;;;;21.23;7.78;;;;;;;;;;5016963;28;20077;-64
2021/07/31 01:27:06;;;;;;;19.50;9.13;;;;;;;;;;5019619;28;20045;-64
2021/07/31 01:29:33;;;;;;;20.15;8.25;;;;;;;;;;5022827;28;20109;-65
2021/07/31 01:31:59;;;;;;;22.67;8.48;;;;;;;;;;5024181;28;20409;-65
2021/07/31 01:34:25;;;;;;;21.77;8.48;;;;;;;;;;5017716;28;20132;-65
2021/07/31 01:36:52;;;;;;;23.00;8.18;;;;;;;;;;5018370;28;20042;-65
2021/07/31 01:39:18;;;;;;;20.33;8.15;;;;;;;;;;5018243;28;20076;-65
2021/07/31 01:41:45;;;;;;;24.38;8.90;;;;;;;;;;5019324;28;20038;-65
2021/07/31 01:44:11;;;;;;;18.23;8.45;;;;;;;;;;5020038;28;20073;-65
2021/07/31 01:46:37;;;;;;;18.35;8.57;;;;;;;;;;5017766;28;20038;-65
2021/07/31 01:49:03;;;;;;;18.05;7.60;;;;;;;;;;5020899;28;20508;-65
2021/07/31 01:51:33;;;;;;;14.27;6.45;;;;;;;;;;5021441;28;20069;-65
2021/07/31 01:53:59;;;;;;;16.40;6.38;;;;;;;;;;5021099;28;20388;-65
2021/07/31 01:56:26;;;;;;;21.20;6.97;;;;;;;;;;5018829;28;20516;-65
2021/07/31 01:58:53;;;;;;;24.45;7.80;;;;;;;;;;5019013;28;20110;-65
2021/07/31 02:01:19;;;;;;;16.20;7.20;;;;;;;;;;5019395;28;20457;-65
2021/07/31 02:03:45;;;;;;;16.48;7.63;;;;;;;;;;5019369;28;20443;-65
2021/07/31 02:06:11;;;;;;;18.38;7.80;;;;;;;;;;5021280;28;20084;-65
2021/07/31 02:08:37;;;;;;;20.00;8.65;;;;;;;;;;5020531;28;20052;-65
2021/07/31 02:11:04;;;;;;;19.90;7.72;;;;;;;;;;5021870;28;20098;-66
2021/07/31 02:13:30;;;;;;;17.55;6.72;;;;;;;;;;5024822;28;20057;-65
2021/07/31 02:15:56;;;;;;;19.88;7.05;;;;;;;;;;5022092;28;20053;-65
2021/07/31 02:18:22;;;;;;;26.33;6.80;;;;;;;;;;5025200;28;20061;-65
2021/07/31 02:20:48;;;;;;;17.77;4.72;;;;;;;;;;5026039;28;20618;-65
2021/07/31 02:23:14;;;;;;;9.70;4.38;;;;;;;;;;5024462;28;20099;-65
2021/07/31 02:25:41;;;;;;;14.50;5.65;;;;;;;;;;5021789;28;20058;-65
2021/07/31 02:28:07;;;;;;;16.33;5.30;;;;;;;;;;5024743;28;20057;-65
2021/07/31 02:30:33;;;;;;;15.35;4.55;;;;;;;;;;5022413;28;20038;-65
2021/07/31 02:32:59;;;;;;;20.30;4.07;;;;;;;;;;5023279;28;20057;-65
2021/07/31 02:35:33;;;;;;;11.07;3.83;;;;;;;;;;5021558;28;20041;-65
2021/07/31 02:37:59;;;;;;;12.00;3.35;;;;;;;;;;5022480;28;20063;-65
2021/07/31 02:40:25;;;;;;;12.00;3.90;;;;;;;;;;5015241;28;20401;-65
2021/07/31 02:42:52;;;;;;;18.13;3.97;;;;;;;;;;5017212;28;20053;-65
2021/07/31 02:45:18;;;;;;;14.63;3.55;;;;;;;;;;5021172;28;20142;-65
2021/07/31 02:47:44;;;;;;;19.75;4.22;;;;;;;;;;5023962;28;20063;-65
2021/07/31 02:50:11;;;;;;;23.35;5.25;;;;;;;;;;5021033;28;20128;-65
2021/07/31 02:52:37;;;;;;;17.02;4.25;;;;;;;;;;5021588;28;20053;-65
2021/07/31 02:55:03;;;;;;;22.73;4.65;;;;;;;;;;5022092;28;20437;-65
2021/07/31 02:57:30;;;;;;;20.27;5.60;;;;;;;;;;5019372;28;20116;-65
2021/07/31 02:59:56;;;;;;;20.92;4.82;;;;;;;;;;5023098;28;20128;-65
2021/07/31 03:02:24;;;;;;;21.98;5.35;;;;;;;;;;5018791;28;20069;-65
2021/07/31 03:04:50;;;;;;;22.52;5.05;;;;;;;;;;5020581;28;20531;-65
2021/07/31 03:07:17;;;;;;;21.27;4.90;;;;;;;;;;5022015;28;20069;-65
2021/07/31 03:09:43;;;;;;;23.05;5.35;;;;;;;;;;5023234;28;20469;-65
2021/07/31 03:12:09;;;;;;;20.13;6.07;;;;;;;;;;5021312;28;20086;-65
2021/07/31 03:14:35;;;;;;;18.00;5.85;;;;;;;;;;5023878;28;20116;-65
2021/07/31 03:17:01;;;;;;;26.13;5.82;;;;;;;;;;5023021;28;20099;-65
2021/07/31 03:19:28;;;;;;;23.23;5.15;;;;;;;;;;5020886;28;20449;-65
2021/07/31 03:21:55;;;;;;;36.70;6.85;;;;;;;;;;5022927;28;20041;-65
2021/07/31 03:24:21;;;;;;;33.20;6.45;;;;;;;;;;5015571;28;20098;-65
2021/07/31 03:26:47;;;;;;;26.42;6.80;;;;;;;;;;5021769;28;20124;-65
2021/07/31 03:29:13;;;;;;;26.40;6.72;;;;;;;;;;5018881;28;20535;-65
2021/07/31 03:31:40;;;;;;;32.90;7.97;;;;;;;;;;5021798;28;20208;-65
2021/07/31 03:34:06;;;;;;;40.40;9.30;;;;;;;;;;5020224;28;20140;-65
2021/07/31 03:36:33;;;;;;;43.17;8.95;;;;;;;;;;5021541;28;20129;-65
2021/07/31 03:38:59;;;;;;;38.60;8.85;;;;;;;;;;5021972;28;20045;-65
2021/07/31 03:41:25;;;;;;;39.42;8.50;;;;;;;;;;5021194;28;20054;-65
2021/07/31 03:43:52;;;;;;;45.47;9.15;;;;;;;;;;5023217;28;20405;-65
2021/07/31 03:46:19;;;;;;;37.50;9.18;;;;;;;;;;5019302;28;20060;-65
2021/07/31 03:48:47;;;;;;;33.25;8.45;;;;;;;;;;5024210;28;20046;-65
2021/07/31 03:51:13;;;;;;;39.35;7.78;;;;;;;;;;5021668;28;20041;-65
2021/07/31 03:53:39;;;;;;;39.40;8.10;;;;;;;;;;5019709;28;20497;-65
2021/07/31 03:56:07;;;;;;;35.80;7.85;;;;;;;;;;5021061;28;20049;-66
2021/07/31 03:58:39;;;;;;;33.78;9.13;;;;;;;;;;5018697;28;20081;-65
2021/07/31 04:01:05;;;;;;;35.30;8.95;;;;;;;;;;5021286;28;20056;-65
2021/07/31 04:03:33;;;;;;;39.72;9.57;;;;;;;;;;5023641;28;20481;-65
2021/07/31 04:06:00;;;;;;;36.78;7.13;;;;;;;;;;5022971;28;20801;-65
2021/07/31 04:08:26;;;;;;;38.40;7.43;;;;;;;;;;5022307;28;20060;-65
2021/07/31 04:10:52;;;;;;;35.33;7.65;;;;;;;;;;5022053;28;20049;-65
2021/07/31 04:13:20;;;;;;;39.75;7.85;;;;;;;;;;5021386;28;20045;-65
2021/07/31 04:15:46;;;;;;;37.50;8.32;;;;;;;;;;5022697;28;20096;-65
2021/07/31 04:18:12;;;;;;;35.75;8.30;;;;;;;;;;5023979;28;20585;-65
2021/07/31 04:20:39;;;;;;;39.75;8.32;;;;;;;;;;5021025;28;20367;-65
2021/07/31 04:23:05;;;;;;;37.72;7.93;;;;;;;;;;5022499;28;20077;-65
2021/07/31 04:25:31;;;;;;;33.75;8.50;;;;;;;;;;5022852;28;20405;-65
2021/07/31 04:28:01;;;;;;;37.90;8.68;;;;;;;;;;5022603;28;20123;-65
2021/07/31 04:30:32;;;;;;;28.65;8.15;;;;;;;;;;5020273;28;20370;-65
2021/07/31 04:32:58;;;;;;;26.20;6.32;;;;;;;;;;5020412;28;20045;-65
2021/07/31 04:35:44;;;;;;;30.13;6.82;;;;;;;;;;5019953;28;20045;-65
2021/07/31 04:38:10;;;;;;;29.05;6.85;;;;;;;;;;5019771;28;20186;-65
2021/07/31 04:40:36;;;;;;;26.52;6.00;;;;;;;;;;5017601;28;20045;-65
2021/07/31 04:43:02;;;;;;;31.75;6.97;;;;;;;;;;5016585;28;20591;-65
2021/07/31 04:45:29;;;;;;;25.33;6.57;;;;;;;;;;5014502;28;20037;-65
2021/07/31 04:47:55;;;;;;;25.75;6.85;;;;;;;;;;5014999;28;20186;-65
2021/07/31 04:50:21;;;;;;;34.00;6.60;;;;;;;;;;5003619;28;20050;-65
2021/07/31 04:52:48;;;;;;;37.75;7.45;;;;;;;;;;5022395;28;20055;-65
2021/07/31 04:55:14;;;;;;;28.65;6.63;;;;;;;;;;5020401;28;20110;-65
2021/07/31 04:57:40;;;;;;;36.95;6.95;;;;;;;;;;5020581;28;20084;-65
2021/07/31 05:00:06;;;;;;;38.22;7.10;;;;;;;;;;5020872;28;20042;-65
2021/07/31 05:02:33;;;;;;;37.33;7.65;;;;;;;;;;5019632;28;20071;-65
2021/07/31 05:05:00;;;;;;;36.03;7.45;;;;;;;;;;5020762;28;20049;-65
2021/07/31 05:07:26;;;;;;;40.08;8.95;;;;;;;;;;5021356;28;20061;-65
2021/07/31 05:09:52;;;;;;;36.45;8.52;;;;;;;;;;5020045;28;20041;-65
2021/07/31 05:12:18;;;;;;;36.63;8.93;;;;;;;;;;5023607;28;20075;-65
2021/07/31 05:14:45;;;;;;;42.35;9.18;;;;;;;;;;5021087;28;20492;-65
2021/07/31 05:17:11;;;;;;;37.38;7.43;;;;;;;;;;5020870;28;20045;-65
2021/07/31 05:19:37;;;;;;;38.33;8.52;;;;;;;;;;5022788;28;20163;-65
2021/07/31 05:22:03;;;;;;;56.58;11.25;;;;;;;;;;5019682;28;20041;-65
2021/07/31 05:24:29;;;;;;;41.65;8.80;;;;;;;;;;5018996;28;20049;-65
2021/07/31 05:26:55;;;;;;;45.85;9.82;;;;;;;;;;5017161;28;20046;-65
2021/07/31 05:29:22;;;;;;;37.08;8.77;;;;;;;;;;5020443;28;20106;-65
2021/07/31 05:31:48;;;;;;;42.72;9.48;;;;;;;;;;5019043;28;20061;-66
2021/07/31 05:34:14;;;;;;;38.97;8.65;;;;;;;;;;5018183;28;20130;-66
2021/07/31 05:36:40;;;;;;;37.28;8.32;;;;;;;;;;5015952;28;20059;-66
2021/07/31 05:39:06;;;;;;;51.60;9.45;;;;;;;;;;5017514;28;20049;-65
2021/07/31 05:41:33;;;;;;;42.65;8.05;;;;;;;;;;5019365;28;20442;-66
2021/07/31 05:43:59;;;;;;;48.67;9.05;;;;;;;;;;5016703;28;20052;-66
2021/07/31 05:46:26;;;;;;;40.65;8.80;;;;;;;;;;5015285;28;20184;-66
2021/07/31 05:48:52;;;;;;;40.25;9.15;;;;;;;;;;5016766;28;20059;-66
2021/07/31 05:51:18;;;;;;;41.50;8.43;;;;;;;;;;5020679;28;20418;-66
2021/07/31 05:53:44;;;;;;;45.15;8.85;;;;;;;;;;5020261;28;20060;-66
2021/07/31 05:56:12;;;;;;;43.20;10.02;;;;;;;;;;5021022;28;20496;-66
2021/07/31 05:58:38;;;;;;;41.42;8.82;;;;;;;;;;5021586;28;20485;-66
2021/07/31 06:01:05;;;;;;;49.03;12.18;;;;;;;;;;5020883;28;20034;-66
2021/07/31 06:03:32;;;;;;;42.47;9.60;;;;;;;;;;5019940;28;20045;-66
2021/07/31 06:05:59;;;;;;;36.38;8.10;;;;;;;;;;5018535;28;20042;-66
2021/07/31 06:08:25;;;;;;;39.65;8.55;;;;;;;;;;5021053;28;20423;-66
2021/07/31 06:10:51;;;;;;;41.70;8.93;;;;;;;;;;5013738;28;20045;-66
2021/07/31 06:13:17;;;;;;;40.88;8.75;;;;;;;;;;5015336;28;20045;-66
2021/07/31 06:15:44;;;;;;;37.45;7.90;;;;;;;;;;5020187;28;20485;-75
2021/07/31 06:18:10;;;;;;;33.13;6.68;;;;;;;;;;5019700;28;20145;-65
2021/07/31 06:20:36;;;;;;;36.08;7.90;;;;;;;;;;5021657;28;20523;-65
2021/07/31 06:23:02;;;;;;;25.30;6.53;;;;;;;;;;5021924;28;20069;-65
2021/07/31 06:25:29;;;;;;;33.17;5.70;;;;;;;;;;5020955;28;20177;-65
2021/07/31 06:27:55;;;;;;;31.08;7.32;;;;;;;;;;5017610;28;20088;-67
2021/07/31 06:30:22;;;;;;;27.23;6.53;;;;;;;;;;5020053;28;20073;-66
2021/07/31 06:32:48;;;;;;;33.28;7.63;;;;;;;;;;5015629;28;20038;-66
2021/07/31 06:35:15;;;;;;;26.85;5.95;;;;;;;;;;5017932;28;20125;-66
2021/07/31 06:37:41;;;;;;;20.77;5.47;;;;;;;;;;5018566;28;20068;-68
2021/07/31 06:40:08;;;;;;;33.95;7.65;;;;;;;;;;5015926;28;20042;-66
2021/07/31 06:42:34;;;;;;;31.40;6.45;;;;;;;;;;5018400;28;20394;-66
2021/07/31 06:45:00;;;;;;;26.70;5.65;;;;;;;;;;5019379;28;20120;-66
2021/07/31 06:47:27;;;;;;;21.55;5.40;;;;;;;;;;5020514;28;20444;-76
2021/07/31 06:49:53;;;;;;;21.10;5.05;;;;;;;;;;5018101;28;20109;-66
2021/07/31 06:52:19;;;;;;;26.88;5.50;;;;;;;;;;5016697;28;20054;-68
2021/07/31 06:54:45;;;;;;;19.40;4.38;;;;;;;;;;5017306;28;20044;-69
2021/07/31 06:57:11;;;;;;;19.83;4.20;;;;;;;;;;5015441;28;20041;-69
2021/07/31 06:59:38;;;;;;;22.73;5.13;;;;;;;;;;5019338;28;20422;-69
2021/07/31 07:02:05;;;;;;;20.38;4.55;;;;;;;;;;5020997;28;20052;-70
2021/07/31 07:04:31;;;;;;;20.70;4.35;;;;;;;;;;5034177;28;20421;-70
2021/07/31 07:06:59;;;;;;;22.25;4.65;;;;;;;;;;5024964;28;20542;-70
2021/07/31 07:09:25;;;;;;;18.45;3.80;;;;;;;;;;5026116;28;20396;-70
2021/07/31 07:11:51;;;;;;;15.20;3.30;;;;;;;;;;5024730;28;20056;-70
2021/07/31 07:14:18;;;;;;;18.35;3.92;;;;;;;;;;5027640;28;20132;-71
2021/07/31 07:16:44;;;;;;;21.80;3.88;;;;;;;;;;5022504;28;20082;-71
2021/07/31 07:19:10;;;;;;;16.30;3.75;;;;;;;;;;5022999;28;20120;-71
2021/07/31 07:21:36;;;;;;;17.95;4.25;;;;;;;;;;5022646;28;20190;-70
2021/07/31 07:24:03;;;;;;;22.52;3.75;;;;;;;;;;5021290;28;20046;-70
2021/07/31 07:26:29;;;;;;;19.60;3.22;;;;;;;;;;5024203;28;20054;-70
2021/07/31 07:28:55;;;;;;;18.15;3.70;;;;;;;;;;5022861;28;20044;-70
2021/07/31 07:31:21;;;;;;;17.95;3.90;;;;;;;;;;5020390;28;20041;-71
2021/07/31 07:33:47;;;;;;;16.50;2.97;;;;;;;;;;5023908;28;20095;-70
2021/07/31 07:36:15;;;;;;;15.93;3.50;;;;;;;;;;5025802;28;20136;-70
2021/07/31 07:38:43;;;;;;;15.00;3.22;;;;;;;;;;5023106;28;20124;-69
2021/07/31 07:41:09;;;;;;;14.13;2.78;;;;;;;;;;5021915;28;20052;-70
2021/07/31 07:43:36;;;;;;;10.55;2.63;;;;;;;;;;5025727;28;20049;-70
2021/07/31 07:46:03;;;;;;;11.68;2.78;;;;;;;;;;5027494;28;20068;-70
2021/07/31 07:48:29;;;;;;;18.17;2.90;;;;;;;;;;5022335;28;20420;-70
2021/07/31 07:50:56;;;;;;;13.55;2.78;;;;;;;;;;5025255;28;20068;-70
2021/07/31 07:53:22;;;;;;;13.13;2.42;;;;;;;;;;5027200;28;20046;-70
2021/07/31 07:55:48;;;;;;;11.00;2.72;;;;;;;;;;5023729;28;20041;-71
2021/07/31 07:58:14;;;;;;;12.23;2.42;;;;;;;;;;5020513;28;20173;-70
2021/07/31 08:00:44;;;;;;;14.88;3.55;;;;;;;;;;5020788;28;20037;-70
2021/07/31 08:03:10;;;;;;;15.00;3.25;;;;;;;;;;5024125;28;20170;-70
2021/07/31 08:05:38;;;;;;;14.02;3.75;;;;;;;;;;5021057;28;20074;-71
2021/07/31 08:08:06;;;;;;;12.05;2.00;;;;;;;;;;5022927;28;20076;-70
2021/07/31 08:10:33;;;;;;;10.25;2.60;;;;;;;;;;5022672;28;20049;-71
2021/07/31 08:12:59;;;;;;;10.52;3.28;;;;;;;;;;5018691;28;20041;-71
2021/07/31 08:15:25;;;;;;;9.27;2.13;;;;;;;;;;5027469;28;20103;-70
2021/07/31 08:17:52;;;;;;;11.63;2.38;;;;;;;;;;5023203;28;20075;-70
2021/07/31 08:20:18;;;;;;;11.90;2.50;;;;;;;;;;5022229;28;20049;-71
2021/07/31 08:22:44;;;;;;;15.10;2.53;;;;;;;;;;5026384;28;20053;-71
2021/07/31 08:25:11;;;;;;;13.20;2.25;;;;;;;;;;5019052;28;20045;-71
2021/07/31 08:27:37;;;;;;;10.60;2.17;;;;;;;;;;5020202;28;20049;-70
2021/07/31 08:30:04;;;;;;;13.13;2.00;;;;;;;;;;5017541;28;20041;-71
2021/07/31 08:32:30;;;;;;;10.48;2.28;;;;;;;;;;5015146;28;20050;-70
2021/07/31 08:34:56;;;;;;;13.93;3.08;;;;;;;;;;5022113;28;20106;-71
2021/07/31 08:37:23;;;;;;;8.50;1.80;;;;;;;;;;5029883;28;20041;-70
2021/07/31 08:39:49;;;;;;;6.68;2.03;;;;;;;;;;5023223;28;20116;-70
2021/07/31 08:42:15;;;;;;;8.30;2.50;;;;;;;;;;5021056;28;20494;-71
2021/07/31 08:44:42;;;;;;;14.10;2.42;;;;;;;;;;5020936;28;20072;-71
2021/07/31 08:47:09;;;;;;;8.85;2.03;;;;;;;;;;5022480;28;20037;-71
2021/07/31 08:49:38;;;;;;;17.60;3.17;;;;;;;;;;5026607;28;20052;-71
2021/07/31 08:52:05;;;;;;;10.75;2.60;;;;;;;;;;5025351;28;20932;-71
2021/07/31 08:54:31;;;;;;;11.68;2.58;;;;;;;;;;5024731;28;20045;-71
2021/07/31 08:56:57;;;;;;;15.40;2.85;;;;;;;;;;5025643;28;20414;-71
2021/07/31 08:59:26;;;;;;;11.38;2.95;;;;;;;;;;5019992;28;20057;-72
2021/07/31 09:01:52;;;;;;;8.27;2.20;;;;;;;;;;5025283;28;20072;-71
2021/07/31 09:04:19;;;;;;;8.55;2.05;;;;;;;;;;5017392;28;20049;-72
2021/07/31 09:06:45;;;;;;;12.00;2.70;;;;;;;;;;5022487;28;20061;-71
2021/07/31 09:09:11;;;;;;;15.05;2.78;;;;;;;;;;5027969;28;20055;-72
2021/07/31 09:11:55;;;;;;;13.88;2.83;;;;;;;;;;5024187;28;20053;-72
2021/07/31 09:14:21;;;;;;;12.65;3.15;;;;;;;;;;5020221;28;20483;-72
2021/07/31 09:16:47;;;;;;;10.55;2.83;;;;;;;;;;5022798;28;20124;-72
2021/07/31 09:19:14;;;;;;;17.25;2.95;;;;;;;;;;5015170;28;20773;-72
2021/07/31 09:21:41;;;;;;;18.02;2.90;;;;;;;;;;5018300;28;20116;-73
2021/07/31 09:24:15;;;;;;;10.20;3.08;;;;;;;;;;5018737;28;20053;-72
2021/07/31 09:26:48;;;;;;;17.85;3.70;;;;;;;;;;5018583;28;20041;-72
2021/07/31 09:29:14;;;;;;;;;;;;;;;;;;5015719;28;20045;-72
2021/07/31 09:31:50;;;;;;;11.40;2.67;;;;;;;;;;5009907;28;20254;-78
2021/07/31 09:34:24;;;;;;;17.88;3.58;;;;;;;;;;5020923;28;20126;-73
2021/07/31 09:37:03;;;;;;;12.05;2.97;;;;;;;;;;5018366;28;20054;-82
2021/07/31 09:39:47;;;;;;;11.95;2.85;;;;;;;;;;5018830;28;20112;-82
2021/07/31 09:42:13;;;;;;;;;;;;;;;;;;5025111;28;20048;-83
2021/07/31 09:44:46;;;;;;;14.73;2.67;;;;;;;;;;5018354;28;20007;-80
2021/07/31 09:47:12;;;;;;;9.70;3.00;;;;;;;;;;5026133;28;20438;-82
2021/07/31 09:49:40;;;;;;;13.13;2.88;;;;;;;;;;5021903;28;20049;-66
2021/07/31 09:52:15;;;;;;;10.38;3.42;;;;;;;;;;5025370;28;20077;-65
2021/07/31 09:54:43;;;;;;;11.50;2.65;;;;;;;;;;5025537;28;20053;-65
2021/07/31 09:57:12;;;;;;;14.43;3.45;;;;;;;;;;5020280;28;20488;-65
2021/07/31 09:59:43;;;;;;;11.77;2.92;;;;;;;;;;5024414;28;20070;-65
2021/07/31 10:02:14;;;;;;;9.27;2.30;;;;;;;;;;5021492;28;20109;-65
2021/07/31 10:04:40;;;;;;;11.52;2.85;;;;;;;;;;5024438;28;20045;-65
2021/07/31 10:07:07;;;;;;;12.45;3.22;;;;;;;;;;5022341;28;20073;-65
2021/07/31 10:09:33;;;;;;;9.93;3.20;;;;;;;;;;5025943;28;20045;-65
2021/07/31 10:12:00;;;;;;;8.50;2.85;;;;;;;;;;5017336;28;20432;-65
2021/07/31 10:14:26;;;;;;;14.00;3.10;;;;;;;;;;5018742;28;20049;-65
2021/07/31 10:16:54;;;;;;;12.07;3.33;;;;;;;;;;5024289;28;20045;-65
2021/07/31 10:19:20;;;;;;;8.38;2.50;;;;;;;;;;5022594;28;20072;-65
2021/07/31 10:21:58;;;;;;;9.75;3.10;;;;;;;;;;5018733;28;20090;-65
2021/07/31 10:24:25;;;;;;;10.35;3.33;;;;;;;;;;5021729;28;20051;-65
2021/07/31 10:27:10;;;;;;;7.65;2.65;;;;;;;;;;5018800;28;20100;-65
2021/07/31 10:29:36;;;;;;;9.45;3.38;;;;;;;;;;5022481;28;20049;-65
2021/07/31 10:32:32;;;;;;;7.22;2.95;;;;;;;;;;5016284;28;20080;-65
2021/07/31 10:35:02;;;;;;;6.47;2.53;;;;;;;;;;5023078;28;20080;-65
2021/07/31 10:37:28;;;;;;;9.70;3.30;;;;;;;;;;5017896;28;20050;-65
2021/07/31 10:39:55;;;;;;;6.95;2.70;;;;;;;;;;5017808;28;20061;-65
2021/07/31 10:42:21;;;;;;;5.38;2.45;;;;;;;;;;5027597;28;20041;-65
2021/07/31 10:45:06;;;;;;;10.63;2.70;;;;;;;;;;5025560;28;20062;-65
2021/07/31 10:47:35;;;;;;;8.40;2.35;;;;;;;;;;5020701;28;20092;-65
2021/07/31 10:50:21;;;;;;;10.38;2.67;;;;;;;;;;5019074;28;20477;-65
2021/07/31 10:52:52;;;;;;;6.95;2.92;;;;;;;;;;5024674;28;20053;-65
2021/07/31 10:55:19;;;;;;;10.10;2.83;;;;;;;;;;5022550;28;20060;-65
2021/07/31 10:57:54;;;;;;;10.18;2.85;;;;;;;;;;5020685;28;20053;-65
2021/07/31 11:00:24;;;;;;;9.80;2.90;;;;;;;;;;5028595;28;20049;-65
2021/07/31 11:02:51;;;;;;;7.22;2.33;;;;;;;;;;5024793;28;20038;-65
2021/07/31 11:05:17;;;;;;;9.30;2.75;;;;;;;;;;5027510;28;20046;-65
2021/07/31 11:07:57;;;;;;;8.50;2.45;;;;;;;;;;5019463;28;20042;-65
2021/07/31 11:10:30;;;;;;;8.82;2.42;;;;;;;;;;5023808;28;20045;-65
2021/07/31 11:12:56;;;;;;;;;;;;;;;;;;5022272;28;20041;-63
2021/07/31 11:15:23;;;;;;;8.68;2.20;;;;;;;;;;5022015;28;19975;-63
2021/07/31 11:17:55;;;;;;;11.85;3.05;;;;;;;;;;5030185;28;20125;-63
2021/07/31 11:20:28;;;;;;;10.25;2.72;;;;;;;;;;5021605;28;20127;-63
2021/07/31 11:22:55;;;;;;;10.68;2.60;;;;;;;;;;5020370;28;20092;-63
2021/07/31 11:25:22;;;;;;;9.13;2.55;;;;;;;;;;5026065;28;20403;-63
2021/07/31 11:27:53;;;;;;;9.90;2.80;;;;;;;;;;5020724;28;20121;-63
2021/07/31 11:30:19;;;;;;;7.30;2.38;;;;;;;;;;5026344;28;20054;-63
2021/07/31 11:32:45;;;;;;;8.40;2.30;;;;;;;;;;5027208;28;20083;-63
2021/07/31 11:35:26;;;;;;;8.75;2.17;;;;;;;;;;5029324;28;20064;-63
2021/07/31 11:37:52;;;;;;;5.90;2.22;;;;;;;;;;5021712;28;20037;-63
2021/07/31 11:40:18;;;;;;;8.43;2.83;;;;;;;;;;5030120;28;20048;-63
2021/07/31 11:42:44;;;;;;;8.85;2.78;;;;;;;;;;5020034;28;20471;-63
2021/07/31 11:45:11;;;;;;;9.88;2.65;;;;;;;;;;5029462;28;20045;-64
2021/07/31 11:47:39;;;;;;;9.70;2.70;;;;;;;;;;5016634;28;20046;-63
2021/07/31 11:50:07;;;;;;;9.45;3.10;;;;;;;;;;5020655;28;20379;-74
2021/07/31 11:52:33;;;;;;;9.38;3.05;;;;;;;;;;5029243;28;20053;-73
2021/07/31 11:55:00;;;;;;;8.48;2.92;;;;;;;;;;5025711;28;20486;-73
2021/07/31 11:57:26;;;;;;;7.88;2.67;;;;;;;;;;5021831;28;20048;-73
2021/07/31 11:59:52;;;;;;;10.80;3.08;;;;;;;;;;5015412;28;20386;-74
2021/07/31 12:02:33;;;;;;;7.65;2.38;;;;;;;;;;5027505;28;20076;-75
2021/07/31 12:04:59;;;;;;;7.35;2.92;;;;;;;;;;5020181;28;20045;-75
2021/07/31 12:07:26;;;;;;;8.40;2.67;;;;;;;;;;5023387;28;20048;-74
2021/07/31 12:10:00;;;;;;;9.60;2.58;;;;;;;;;;5021682;28;20097;-74
2021/07/31 12:12:27;;;;;;;8.77;2.53;;;;;;;;;;5020195;28;20042;-73
2021/07/31 12:15:12;;;;;;;14.95;2.80;;;;;;;;;;5021010;28;20046;-73
2021/07/31 12:17:39;;;;;;;6.53;2.00;;;;;;;;;;5024953;28;20045;-73
2021/07/31 12:20:06;;;;;;;5.50;1.85;;;;;;;;;;5013595;28;20099;-73
2021/07/31 12:22:34;;;;;;;6.88;2.05;;;;;;;;;;5041631;28;20049;-73
2021/07/31 12:25:09;;;;;;;6.75;2.50;;;;;;;;;;5019278;28;20049;-73
2021/07/31 12:27:54;;;;;;;10.38;2.30;;;;;;;;;;5025689;28;20072;-73
2021/07/31 12:30:25;;;;;;;6.15;2.08;;;;;;;;;;5027583;28;20077;-73
2021/07/31 12:32:52;;;;;;;6.07;2.10;;;;;;;;;;5018176;28;20041;-73
2021/07/31 12:35:30;;;;;;;7.03;2.42;;;;;;;;;;5023167;28;20057;-73
2021/07/31 12:37:56;;;;;;;8.65;3.05;;;;;;;;;;5023014;28;20048;-73
2021/07/31 12:40:22;;;;;;;6.60;2.92;;;;;;;;;;5015209;28;20037;-73
2021/07/31 12:42:48;;;;;;;9.80;3.78;;;;;;;;;;5023391;28;20243;-73
2021/07/31 12:45:15;;;;;;;6.40;3.10;;;;;;;;;;5018507;28;20142;-73
2021/07/31 12:47:41;;;;;;;9.32;3.83;;;;;;;;;;5012049;28;20129;-73
2021/07/31 12:50:08;;;;;;;8.95;2.97;;;;;;;;;;5044024;28;20087;-73
2021/07/31 12:52:34;;;;;;;7.65;2.88;;;;;;;;;;5021062;28;20053;-73
2021/07/31 12:55:00;;;;;;;8.43;3.38;;;;;;;;;;5022589;28;20139;-73
2021/07/31 12:57:26;;;;;;;7.88;3.58;;;;;;;;;;5016010;28;20038;-73
2021/07/31 12:59:53;;;;;;;9.85;3.20;;;;;;;;;;5016024;28;20081;-73
2021/07/31 13:02:19;;;;;;;11.30;3.50;;;;;;;;;;5015920;28;20111;-73
2021/07/31 13:04:45;;;;;;;8.70;3.55;;;;;;;;;;5018522;28;20041;-73
2021/07/31 13:07:11;;;;;;;8.40;3.80;;;;;;;;;;5020844;28;20049;-73
2021/07/31 13:09:38;;;;;;;9.20;3.95;;;;;;;;;;5013130;28;20103;-73
2021/07/31 13:12:05;;;;;;;8.77;3.75;;;;;;;;;;5029816;28;20084;-73
2021/07/31 13:14:31;;;;;;;7.80;3.75;;;;;;;;;;5021811;28;20073;-72
2021/07/31 13:16:58;;;;;;;7.82;3.15;;;;;;;;;;5019352;28;20048;-72
2021/07/31 13:19:25;;;;;;;8.35;3.13;;;;;;;;;;5021216;28;20143;-72
2021/07/31 13:21:51;;;;;;;17.58;4.45;;;;;;;;;;5021913;28;20037;-72
2021/07/31 13:24:18;;;;;;;13.93;4.63;;;;;;;;;;5021866;28;20512;-72
2021/07/31 13:26:44;;;;;;;9.52;3.80;;;;;;;;;;5017727;28;20383;-72
2021/07/31 13:29:10;;;;;;;10.80;3.95;;;;;;;;;;5018016;28;20054;-73
2021/07/31 13:31:39;;;;;;;9.55;3.65;;;;;;;;;;5015740;28;20474;-72
2021/07/31 13:34:06;;;;;;;8.60;4.20;;;;;;;;;;5021597;28;20097;-73
2021/07/31 13:36:32;;;;;;;13.10;3.83;;;;;;;;;;5017593;28;20515;-73
2021/07/31 13:39:01;;;;;;;14.18;4.63;;;;;;;;;;5023485;28;20397;-76
2021/07/31 13:41:28;;;;;;;8.60;3.42;;;;;;;;;;5014688;28;20061;-72
2021/07/31 13:43:56;;;;;;;11.55;3.58;;;;;;;;;;5024611;28;20040;-72
2021/07/31 13:46:23;;;;;;;7.50;2.72;;;;;;;;;;5013628;28;20413;-72
2021/07/31 13:48:49;;;;;;;7.50;2.40;;;;;;;;;;5017141;28;20057;-72
2021/07/31 13:51:16;;;;;;;8.27;3.53;;;;;;;;;;5022196;28;20041;-72
2021/07/31 13:53:42;;;;;;;7.18;2.60;;;;;;;;;;5015965;28;20060;-85
2021/07/31 13:56:08;;;;;;;5.70;2.15;;;;;;;;;;5025746;28;20046;-73
2021/07/31 13:58:35;;;;;;;9.63;2.78;;;;;;;;;;5015949;28;20048;-73
2021/07/31 14:01:01;;;;;;;7.15;2.10;;;;;;;;;;5026586;28;20065;-72
2021/07/31 14:03:27;;;;;;;8.68;3.33;;;;;;;;;;5016341;28;20129;-73
2021/07/31 14:05:53;;;;;;;9.02;2.30;;;;;;;;;;5014829;28;20493;-72
2021/07/31 14:08:19;;;;;;;12.07;2.55;;;;;;;;;;5015624;28;20054;-73
2021/07/31 14:10:46;;;;;;;8.98;2.55;;;;;;;;;;5014801;28;20149;-72
2021/07/31 14:13:12;;;;;;;9.77;2.60;;;;;;;;;;5027450;28;20091;-73
2021/07/31 14:15:43;;;;;;;12.05;2.53;;;;;;;;;;5019114;28;20080;-73
2021/07/31 14:18:10;;;;;;;13.77;2.95;;;;;;;;;;5018525;28;20042;-72
2021/07/31 14:20:38;;;;;;;9.82;2.53;;;;;;;;;;5018667;28;20069;-73
2021/07/31 14:23:04;;;;;;;9.20;2.67;;;;;;;;;;5017226;28;20419;-73
2021/07/31 14:25:30;;;;;;;11.50;2.83;;;;;;;;;;5017032;28;20077;-73
2021/07/31 14:27:56;;;;;;;10.50;2.97;;;;;;;;;;5013433;28;20034;-73
2021/07/31 14:30:23;;;;;;;11.45;2.90;;;;;;;;;;5016042;28;20438;-73
2021/07/31 14:32:50;;;;;;;10.50;3.50;;;;;;;;;;5021286;28;20103;-72
2021/07/31 14:35:16;;;;;;;8.15;2.60;;;;;;;;;;5026043;28;20079;-72